Floris, Iowa
Current Conditions -  °F | °C
As of 9:35 AM on Thursday 23 Oct 2014 (Local Time) from KFFL Reporting Station
Overcast Overcast  
Wind Chill: 52°   Ceiling: 6000
Heat Index: 52°   Visibility: NA
Dew Point: 45°   Wind: 8mph
Humidity: 76%   Direction: 190°S
Pressure: 30.08"   Gusts: NA
Location:  40.87°N, 92.33°W
Report Text: KFFL 231435Z AUTO 19007KT BKN060 OVC075 11/07 A3008 RMK AO2
Loading
Personal Weather Stations






























Interactive Weather Map
Tropical Storm Tracking
New forecast layout! Learn more

10-Day Weather Forecast

Advertisements
Track Severe Weather on mobile